sensor_id;sensor_type;location;lat;lon;timestamp;temperature;humidity
39751;DHT22;37579;51.074;17.004;2022-12-20T00:00:50;21.60;57.30
39751;DHT22;37579;51.074;17.004;2022-12-20T00:03:16;21.60;57.10
39751;DHT22;37579;51.074;17.004;2022-12-20T00:05:42;21.50;57.20
39751;DHT22;37579;51.074;17.004;2022-12-20T00:08:09;21.50;57.20
39751;DHT22;37579;51.074;17.004;2022-12-20T00:10:36;21.60;57.00
39751;DHT22;37579;51.074;17.004;2022-12-20T00:13:02;21.60;57.00
39751;DHT22;37579;51.074;17.004;2022-12-20T00:15:27;21.60;57.10
39751;DHT22;37579;51.074;17.004;2022-12-20T00:17:53;21.60;57.00
39751;DHT22;37579;51.074;17.004;2022-12-20T00:20:19;21.60;57.00
39751;DHT22;37579;51.074;17.004;2022-12-20T00:22:45;21.60;57.10
39751;DHT22;37579;51.074;17.004;2022-12-20T00:25:11;21.60;57.20
39751;DHT22;37579;51.074;17.004;2022-12-20T00:27:37;21.50;57.00
39751;DHT22;37579;51.074;17.004;2022-12-20T00:30:03;21.60;56.90
39751;DHT22;37579;51.074;17.004;2022-12-20T00:32:30;21.60;56.80
39751;DHT22;37579;51.074;17.004;2022-12-20T00:34:56;21.60;56.70
39751;DHT22;37579;51.074;17.004;2022-12-20T00:37:23;21.60;56.80
39751;DHT22;37579;51.074;17.004;2022-12-20T00:39:49;21.70;56.80
39751;DHT22;37579;51.074;17.004;2022-12-20T00:42:15;21.60;56.80
39751;DHT22;37579;51.074;17.004;2022-12-20T00:44:41;21.70;56.50
39751;DHT22;37579;51.074;17.004;2022-12-20T00:47:06;21.80;56.30
39751;DHT22;37579;51.074;17.004;2022-12-20T00:49:32;21.80;56.20
39751;DHT22;37579;51.074;17.004;2022-12-20T00:51:58;21.80;56.10
39751;DHT22;37579;51.074;17.004;2022-12-20T00:54:24;21.80;56.10
39751;DHT22;37579;51.074;17.004;2022-12-20T00:56:49;21.80;56.10
39751;DHT22;37579;51.074;17.004;2022-12-20T00:59:15;21.80;56.00
39751;DHT22;37579;51.074;17.004;2022-12-20T01:01:41;21.80;56.00
39751;DHT22;37579;51.074;17.004;2022-12-20T01:04:07;21.80;56.00
39751;DHT22;37579;51.074;17.004;2022-12-20T01:06:33;21.80;56.00
39751;DHT22;37579;51.074;17.004;2022-12-20T01:09:00;21.80;56.00
39751;DHT22;37579;51.074;17.004;2022-12-20T01:11:33;21.70;56.10
39751;DHT22;37579;51.074;17.004;2022-12-20T01:14:11;21.70;56.30
39751;DHT22;37579;51.074;17.004;2022-12-20T01:16:41;21.70;56.10
39751;DHT22;37579;51.074;17.004;2022-12-20T01:19:08;21.70;56.10
39751;DHT22;37579;51.074;17.004;2022-12-20T01:21:35;21.70;56.10
39751;DHT22;37579;51.074;17.004;2022-12-20T01:24:01;21.70;56.00
39751;DHT22;37579;51.074;17.004;2022-12-20T01:26:28;21.70;56.00
39751;DHT22;37579;51.074;17.004;2022-12-20T01:28:56;21.70;55.90
39751;DHT22;37579;51.074;17.004;2022-12-20T01:31:23;21.70;56.00
39751;DHT22;37579;51.074;17.004;2022-12-20T01:33:49;21.70;55.90
39751;DHT22;37579;51.074;17.004;2022-12-20T01:36:27;21.70;56.00
39751;DHT22;37579;51.074;17.004;2022-12-20T01:39:04;21.70;55.80
39751;DHT22;37579;51.074;17.004;2022-12-20T01:41:31;21.70;55.80
39751;DHT22;37579;51.074;17.004;2022-12-20T01:43:59;21.70;55.80
39751;DHT22;37579;51.074;17.004;2022-12-20T01:46:28;21.70;55.80
39751;DHT22;37579;51.074;17.004;2022-12-20T01:51:24;21.70;55.90
39751;DHT22;37579;51.074;17.004;2022-12-20T01:53:56;21.60;55.90
39751;DHT22;37579;51.074;17.004;2022-12-20T01:56:24;21.60;55.90
39751;DHT22;37579;51.074;17.004;2022-12-20T01:58:52;21.60;55.90
39751;DHT22;37579;51.074;17.004;2022-12-20T02:01:21;21.60;56.00
39751;DHT22;37579;51.074;17.004;2022-12-20T02:03:48;21.60;56.10
39751;DHT22;37579;51.074;17.004;2022-12-20T02:06:20;21.50;55.90
39751;DHT22;37579;51.074;17.004;2022-12-20T02:08:48;21.60;55.90
39751;DHT22;37579;51.074;17.004;2022-12-20T02:14:14;21.60;55.60
39751;DHT22;37579;51.074;17.004;2022-12-20T02:22:23;21.80;55.10
39751;DHT22;37579;51.074;17.004;2022-12-20T02:25:07;21.80;55.10
39751;DHT22;37579;51.074;17.004;2022-12-20T02:27:56;21.80;55.10
39751;DHT22;37579;51.074;17.004;2022-12-20T02:30:27;21.80;55.10
39751;DHT22;37579;51.074;17.004;2022-12-20T02:33:03;21.80;55.00
39751;DHT22;37579;51.074;17.004;2022-12-20T02:35:33;21.80;54.90
39751;DHT22;37579;51.074;17.004;2022-12-20T02:38:03;21.80;54.90
39751;DHT22;37579;51.074;17.004;2022-12-20T02:40:38;21.80;54.80
39751;DHT22;37579;51.074;17.004;2022-12-20T02:43:06;21.80;54.90
39751;DHT22;37579;51.074;17.004;2022-12-20T02:45:55;21.80;54.80
39751;DHT22;37579;51.074;17.004;2022-12-20T02:48:23;21.80;54.80
39751;DHT22;37579;51.074;17.004;2022-12-20T02:50:52;21.80;54.70
39751;DHT22;37579;51.074;17.004;2022-12-20T02:53:20;21.80;54.70
39751;DHT22;37579;51.074;17.004;2022-12-20T03:01:02;21.80;54.60
39751;DHT22;37579;51.074;17.004;2022-12-20T03:03:32;21.80;54.70
39751;DHT22;37579;51.074;17.004;2022-12-20T03:05:59;21.80;54.70
39751;DHT22;37579;51.074;17.004;2022-12-20T03:08:25;21.80;54.60
39751;DHT22;37579;51.074;17.004;2022-12-20T03:10:52;21.80;54.70
39751;DHT22;37579;51.074;17.004;2022-12-20T03:13:19;21.70;54.70
39751;DHT22;37579;51.074;17.004;2022-12-20T03:15:51;21.70;54.80
39751;DHT22;37579;51.074;17.004;2022-12-20T03:18:17;21.70;54.80
39751;DHT22;37579;51.074;17.004;2022-12-20T03:20:44;21.70;54.70
39751;DHT22;37579;51.074;17.004;2022-12-20T03:23:09;21.70;54.70
39751;DHT22;37579;51.074;17.004;2022-12-20T03:25:35;21.70;54.80
39751;DHT22;37579;51.074;17.004;2022-12-20T03:28:03;21.70;54.80
39751;DHT22;37579;51.074;17.004;2022-12-20T03:30:29;21.70;54.80
39751;DHT22;37579;51.074;17.004;2022-12-20T03:32:56;21.70;54.70
39751;DHT22;37579;51.074;17.004;2022-12-20T03:35:22;21.70;54.70
39751;DHT22;37579;51.074;17.004;2022-12-20T03:37:48;21.70;54.70
39751;DHT22;37579;51.074;17.004;2022-12-20T03:40:14;21.70;54.80
39751;DHT22;37579;51.074;17.004;2022-12-20T03:42:40;21.70;54.80
39751;DHT22;37579;51.074;17.004;2022-12-20T03:45:07;21.70;54.80
39751;DHT22;37579;51.074;17.004;2022-12-20T03:47:33;21.60;54.80
39751;DHT22;37579;51.074;17.004;2022-12-20T03:50:00;21.60;54.70
39751;DHT22;37579;51.074;17.004;2022-12-20T03:52:29;21.60;54.80
39751;DHT22;37579;51.074;17.004;2022-12-20T03:54:55;21.60;54.90
39751;DHT22;37579;51.074;17.004;2022-12-20T03:57:28;21.60;54.90
39751;DHT22;37579;51.074;17.004;2022-12-20T03:59:55;21.60;54.80
39751;DHT22;37579;51.074;17.004;2022-12-20T04:02:21;21.60;55.00
39751;DHT22;37579;51.074;17.004;2022-12-20T04:04:48;21.60;55.00
39751;DHT22;37579;51.074;17.004;2022-12-20T04:07:14;21.50;55.00
39751;DHT22;37579;51.074;17.004;2022-12-20T04:09:43;21.50;55.20
39751;DHT22;37579;51.074;17.004;2022-12-20T04:12:12;21.40;55.30
39751;DHT22;37579;51.074;17.004;2022-12-20T04:14:38;21.50;55.20
39751;DHT22;37579;51.074;17.004;2022-12-20T04:17:05;21.40;55.30
39751;DHT22;37579;51.074;17.004;2022-12-20T04:19:31;21.40;55.40
39751;DHT22;37579;51.074;17.004;2022-12-20T04:21:58;21.40;56.20
39751;DHT22;37579;51.074;17.004;2022-12-20T04:24:26;21.30;55.60
39751;DHT22;37579;51.074;17.004;2022-12-20T04:27:10;21.30;55.70
39751;DHT22;37579;51.074;17.004;2022-12-20T04:29:36;21.30;55.50
39751;DHT22;37579;51.074;17.004;2022-12-20T04:32:04;21.40;55.50
39751;DHT22;37579;51.074;17.004;2022-12-20T04:34:30;21.30;55.40
39751;DHT22;37579;51.074;17.004;2022-12-20T04:36:56;21.30;55.30
39751;DHT22;37579;51.074;17.004;2022-12-20T04:39:33;21.40;55.40
39751;DHT22;37579;51.074;17.004;2022-12-20T04:42:13;21.40;55.40
39751;DHT22;37579;51.074;17.004;2022-12-20T04:44:39;21.40;55.40
39751;DHT22;37579;51.074;17.004;2022-12-20T04:47:05;21.50;55.00
39751;DHT22;37579;51.074;17.004;2022-12-20T04:49:31;21.50;55.00
39751;DHT22;37579;51.074;17.004;2022-12-20T04:51:57;21.50;55.00
39751;DHT22;37579;51.074;17.004;2022-12-20T04:54:44;21.50;55.00
39751;DHT22;37579;51.074;17.004;2022-12-20T04:57:14;21.60;54.90
39751;DHT22;37579;51.074;17.004;2022-12-20T04:59:41;21.60;54.80
39751;DHT22;37579;51.074;17.004;2022-12-20T05:02:07;21.60;54.60
39751;DHT22;37579;51.074;17.004;2022-12-20T05:04:44;21.60;54.60
39751;DHT22;37579;51.074;17.004;2022-12-20T05:07:10;21.60;54.50
39751;DHT22;37579;51.074;17.004;2022-12-20T05:09:43;21.60;54.50
39751;DHT22;37579;51.074;17.004;2022-12-20T05:12:09;21.70;54.50
39751;DHT22;37579;51.074;17.004;2022-12-20T05:14:34;21.60;54.40
39751;DHT22;37579;51.074;17.004;2022-12-20T05:17:01;21.70;54.40
39751;DHT22;37579;51.074;17.004;2022-12-20T05:19:27;21.70;54.30
39751;DHT22;37579;51.074;17.004;2022-12-20T05:21:53;21.70;54.20
39751;DHT22;37579;51.074;17.004;2022-12-20T05:24:40;21.70;54.10
39751;DHT22;37579;51.074;17.004;2022-12-20T05:27:29;21.70;54.00
39751;DHT22;37579;51.074;17.004;2022-12-20T05:29:55;21.80;54.00
39751;DHT22;37579;51.074;17.004;2022-12-20T05:32:22;21.80;53.90
39751;DHT22;37579;51.074;17.004;2022-12-20T05:34:49;21.80;53.90
39751;DHT22;37579;51.074;17.004;2022-12-20T05:37:17;21.80;53.80
39751;DHT22;37579;51.074;17.004;2022-12-20T05:39:43;21.80;53.80
39751;DHT22;37579;51.074;17.004;2022-12-20T05:42:15;21.80;53.70
39751;DHT22;37579;51.074;17.004;2022-12-20T05:44:41;21.80;53.70
39751;DHT22;37579;51.074;17.004;2022-12-20T05:47:07;21.90;53.70
39751;DHT22;37579;51.074;17.004;2022-12-20T05:49:35;21.80;53.60
39751;DHT22;37579;51.074;17.004;2022-12-20T05:52:03;21.90;53.60
39751;DHT22;37579;51.074;17.004;2022-12-20T05:54:30;21.90;53.60
39751;DHT22;37579;51.074;17.004;2022-12-20T05:57:06;21.90;53.60
39751;DHT22;37579;51.074;17.004;2022-12-20T05:59:38;21.90;53.60
39751;DHT22;37579;51.074;17.004;2022-12-20T06:02:07;21.90;53.70
39751;DHT22;37579;51.074;17.004;2022-12-20T06:04:36;21.90;53.80
39751;DHT22;37579;51.074;17.004;2022-12-20T06:07:09;21.90;53.90
39751;DHT22;37579;51.074;17.004;2022-12-20T06:09:36;21.90;53.90
39751;DHT22;37579;51.074;17.004;2022-12-20T06:12:08;21.90;53.90
39751;DHT22;37579;51.074;17.004;2022-12-20T06:14:34;21.90;53.80
39751;DHT22;37579;51.074;17.004;2022-12-20T06:17:01;21.90;53.70
39751;DHT22;37579;51.074;17.004;2022-12-20T06:19:27;22.00;53.70
39751;DHT22;37579;51.074;17.004;2022-12-20T06:21:56;22.00;53.80
39751;DHT22;37579;51.074;17.004;2022-12-20T06:24:36;22.00;53.70
39751;DHT22;37579;51.074;17.004;2022-12-20T06:27:02;22.00;53.60
39751;DHT22;37579;51.074;17.004;2022-12-20T06:29:29;22.00;53.50
39751;DHT22;37579;51.074;17.004;2022-12-20T06:32:02;22.10;53.40
39751;DHT22;37579;51.074;17.004;2022-12-20T06:34:30;22.10;53.30
39751;DHT22;37579;51.074;17.004;2022-12-20T06:36:56;22.10;53.30
39751;DHT22;37579;51.074;17.004;2022-12-20T06:39:26;22.10;53.80
39751;DHT22;37579;51.074;17.004;2022-12-20T06:42:17;22.10;53.10
39751;DHT22;37579;51.074;17.004;2022-12-20T06:44:44;22.10;53.20
39751;DHT22;37579;51.074;17.004;2022-12-20T06:47:10;22.10;53.10
39751;DHT22;37579;51.074;17.004;2022-12-20T06:49:36;22.10;53.00
39751;DHT22;37579;51.074;17.004;2022-12-20T06:52:09;22.10;53.00
39751;DHT22;37579;51.074;17.004;2022-12-20T06:54:43;22.20;53.00
39751;DHT22;37579;51.074;17.004;2022-12-20T06:57:11;22.20;53.00
39751;DHT22;37579;51.074;17.004;2022-12-20T06:59:37;22.20;52.90
39751;DHT22;37579;51.074;17.004;2022-12-20T07:02:03;22.20;52.90
39751;DHT22;37579;51.074;17.004;2022-12-20T07:04:29;22.20;52.90
39751;DHT22;37579;51.074;17.004;2022-12-20T07:06:54;22.20;52.90
39751;DHT22;37579;51.074;17.004;2022-12-20T07:09:22;22.20;52.90
39751;DHT22;37579;51.074;17.004;2022-12-20T07:11:47;22.20;53.00
39751;DHT22;37579;51.074;17.004;2022-12-20T07:14:14;22.20;53.10
39751;DHT22;37579;51.074;17.004;2022-12-20T07:16:39;22.20;53.30
39751;DHT22;37579;51.074;17.004;2022-12-20T07:19:14;22.20;53.30
39751;DHT22;37579;51.074;17.004;2022-12-20T07:21:41;22.20;53.40
39751;DHT22;37579;51.074;17.004;2022-12-20T07:24:07;22.20;53.50
39751;DHT22;37579;51.074;17.004;2022-12-20T07:26:33;22.20;53.50
39751;DHT22;37579;51.074;17.004;2022-12-20T07:28:59;22.20;53.50
39751;DHT22;37579;51.074;17.004;2022-12-20T07:31:25;22.20;53.60
39751;DHT22;37579;51.074;17.004;2022-12-20T07:33:51;22.20;53.50
39751;DHT22;37579;51.074;17.004;2022-12-20T07:36:17;22.20;53.60
39751;DHT22;37579;51.074;17.004;2022-12-20T07:38:42;22.20;53.70
39751;DHT22;37579;51.074;17.004;2022-12-20T07:41:13;22.10;53.80
39751;DHT22;37579;51.074;17.004;2022-12-20T07:43:39;22.10;54.00
39751;DHT22;37579;51.074;17.004;2022-12-20T07:46:06;22.20;53.90
39751;DHT22;37579;51.074;17.004;2022-12-20T07:48:32;22.10;53.80
39751;DHT22;37579;51.074;17.004;2022-12-20T07:51:02;22.10;54.10
39751;DHT22;37579;51.074;17.004;2022-12-20T07:53:33;22.20;54.40
39751;DHT22;37579;51.074;17.004;2022-12-20T07:56:00;22.20;54.60
39751;DHT22;37579;51.074;17.004;2022-12-20T07:58:27;22.20;54.80
39751;DHT22;37579;51.074;17.004;2022-12-20T08:00:53;22.10;54.80
39751;DHT22;37579;51.074;17.004;2022-12-20T08:03:23;22.20;55.00
39751;DHT22;37579;51.074;17.004;2022-12-20T08:05:54;22.20;55.00
39751;DHT22;37579;51.074;17.004;2022-12-20T08:08:22;22.20;55.10
39751;DHT22;37579;51.074;17.004;2022-12-20T08:10:48;22.30;55.20
39751;DHT22;37579;51.074;17.004;2022-12-20T08:13:15;22.30;55.30
39751;DHT22;37579;51.074;17.004;2022-12-20T08:15:41;22.30;55.40
39751;DHT22;37579;51.074;17.004;2022-12-20T08:18:07;22.30;55.40
39751;DHT22;37579;51.074;17.004;2022-12-20T08:20:33;22.30;55.30
39751;DHT22;37579;51.074;17.004;2022-12-20T08:22:58;22.20;55.10
39751;DHT22;37579;51.074;17.004;2022-12-20T08:25:24;22.20;55.00
39751;DHT22;37579;51.074;17.004;2022-12-20T08:27:50;22.20;55.00
39751;DHT22;37579;51.074;17.004;2022-12-20T08:30:17;22.20;55.00
39751;DHT22;37579;51.074;17.004;2022-12-20T08:32:43;22.20;54.90
39751;DHT22;37579;51.074;17.004;2022-12-20T08:35:08;22.20;54.80
39751;DHT22;37579;51.074;17.004;2022-12-20T08:37:34;22.30;54.90
39751;DHT22;37579;51.074;17.004;2022-12-20T08:40:00;22.30;54.80
39751;DHT22;37579;51.074;17.004;2022-12-20T08:42:26;22.20;54.40
39751;DHT22;37579;51.074;17.004;2022-12-20T08:44:52;22.20;54.40
39751;DHT22;37579;51.074;17.004;2022-12-20T08:47:18;22.20;54.30
39751;DHT22;37579;51.074;17.004;2022-12-20T08:49:44;22.20;54.10
39751;DHT22;37579;51.074;17.004;2022-12-20T08:52:09;22.20;54.10
39751;DHT22;37579;51.074;17.004;2022-12-20T08:54:35;22.20;54.00
39751;DHT22;37579;51.074;17.004;2022-12-20T08:57:01;22.20;54.00
39751;DHT22;37579;51.074;17.004;2022-12-20T08:59:26;22.20;53.90
39751;DHT22;37579;51.074;17.004;2022-12-20T09:01:52;22.20;53.90
39751;DHT22;37579;51.074;17.004;2022-12-20T09:04:19;22.20;53.80
39751;DHT22;37579;51.074;17.004;2022-12-20T09:06:46;22.20;53.70
39751;DHT22;37579;51.074;17.004;2022-12-20T09:09:11;22.20;53.60
39751;DHT22;37579;51.074;17.004;2022-12-20T09:11:37;22.20;53.50
39751;DHT22;37579;51.074;17.004;2022-12-20T09:14:03;22.20;53.40
39751;DHT22;37579;51.074;17.004;2022-12-20T09:16:30;22.20;53.40
39751;DHT22;37579;51.074;17.004;2022-12-20T09:18:58;22.20;53.30
39751;DHT22;37579;51.074;17.004;2022-12-20T09:21:25;22.30;53.20
39751;DHT22;37579;51.074;17.004;2022-12-20T09:23:53;22.30;53.20
39751;DHT22;37579;51.074;17.004;2022-12-20T09:26:20;22.20;53.10
39751;DHT22;37579;51.074;17.004;2022-12-20T09:28:47;22.30;53.10
39751;DHT22;37579;51.074;17.004;2022-12-20T09:31:16;22.30;53.10
39751;DHT22;37579;51.074;17.004;2022-12-20T09:33:43;22.20;52.90
39751;DHT22;37579;51.074;17.004;2022-12-20T09:36:14;22.20;52.90
39751;DHT22;37579;51.074;17.004;2022-12-20T09:38:41;22.20;52.70
39751;DHT22;37579;51.074;17.004;2022-12-20T09:41:15;22.20;52.60
39751;DHT22;37579;51.074;17.004;2022-12-20T09:43:42;22.20;52.60
39751;DHT22;37579;51.074;17.004;2022-12-20T09:46:13;22.20;52.50
39751;DHT22;37579;51.074;17.004;2022-12-20T09:48:40;22.30;52.60
39751;DHT22;37579;51.074;17.004;2022-12-20T10:01:23;22.40;52.80
39751;DHT22;37579;51.074;17.004;2022-12-20T10:03:50;22.40;52.90
39751;DHT22;37579;51.074;17.004;2022-12-20T10:09:21;22.40;53.00
39751;DHT22;37579;51.074;17.004;2022-12-20T10:20:29;22.30;53.20
39751;DHT22;37579;51.074;17.004;2022-12-20T10:23:32;22.30;53.10
39751;DHT22;37579;51.074;17.004;2022-12-20T10:26:08;22.30;53.20
39751;DHT22;37579;51.074;17.004;2022-12-20T10:28:35;22.30;53.20
39751;DHT22;37579;51.074;17.004;2022-12-20T10:31:05;22.20;53.30
39751;DHT22;37579;51.074;17.004;2022-12-20T10:33:32;22.20;53.40
39751;DHT22;37579;51.074;17.004;2022-12-20T10:38:49;22.20;53.40
39751;DHT22;37579;51.074;17.004;2022-12-20T10:41:20;22.20;53.30
39751;DHT22;37579;51.074;17.004;2022-12-20T10:43:54;22.30;53.90
39751;DHT22;37579;51.074;17.004;2022-12-20T10:46:21;22.30;53.20
39751;DHT22;37579;51.074;17.004;2022-12-20T10:48:47;22.30;53.20
39751;DHT22;37579;51.074;17.004;2022-12-20T10:51:19;22.30;53.20
39751;DHT22;37579;51.074;17.004;2022-12-20T10:54:02;22.30;53.20
39751;DHT22;37579;51.074;17.004;2022-12-20T10:56:33;22.30;53.10
39751;DHT22;37579;51.074;17.004;2022-12-20T11:01:43;22.30;53.20
39751;DHT22;37579;51.074;17.004;2022-12-20T11:04:34;22.30;53.40
39751;DHT22;37579;51.074;17.004;2022-12-20T11:07:02;22.30;53.30
39751;DHT22;37579;51.074;17.004;2022-12-20T11:09:34;22.30;53.60
39751;DHT22;37579;51.074;17.004;2022-12-20T11:12:12;22.30;53.70
39751;DHT22;37579;51.074;17.004;2022-12-20T11:14:41;22.30;53.70
39751;DHT22;37579;51.074;17.004;2022-12-20T11:17:35;22.20;53.60
39751;DHT22;37579;51.074;17.004;2022-12-20T11:28:42;22.30;54.20
39751;DHT22;37579;51.074;17.004;2022-12-20T11:37:26;22.20;55.00
39751;DHT22;37579;51.074;17.004;2022-12-20T11:40:30;22.20;55.90
39751;DHT22;37579;51.074;17.004;2022-12-20T11:43:11;22.30;55.50
39751;DHT22;37579;51.074;17.004;2022-12-20T11:54:11;22.20;56.10
39751;DHT22;37579;51.074;17.004;2022-12-20T11:56:41;22.20;56.50
39751;DHT22;37579;51.074;17.004;2022-12-20T11:59:14;22.20;56.60
39751;DHT22;37579;51.074;17.004;2022-12-20T12:01:54;22.20;56.70
39751;DHT22;37579;51.074;17.004;2022-12-20T12:04:26;22.20;56.90
39751;DHT22;37579;51.074;17.004;2022-12-20T12:07:02;22.20;56.90
39751;DHT22;37579;51.074;17.004;2022-12-20T12:09:59;22.20;56.90
39751;DHT22;37579;51.074;17.004;2022-12-20T12:12:38;22.20;57.00
39751;DHT22;37579;51.074;17.004;2022-12-20T12:18:21;22.10;57.00
39751;DHT22;37579;51.074;17.004;2022-12-20T12:26:34;22.20;57.40
39751;DHT22;37579;51.074;17.004;2022-12-20T12:29:05;22.10;57.70
39751;DHT22;37579;51.074;17.004;2022-12-20T12:34:06;22.20;58.00
39751;DHT22;37579;51.074;17.004;2022-12-20T12:47:48;22.10;58.40
39751;DHT22;37579;51.074;17.004;2022-12-20T12:50:27;22.10;58.60
39751;DHT22;37579;51.074;17.004;2022-12-20T12:53:03;22.10;58.80
39751;DHT22;37579;51.074;17.004;2022-12-20T12:55:41;22.20;59.00
39751;DHT22;37579;51.074;17.004;2022-12-20T13:01:46;22.20;59.40
39751;DHT22;37579;51.074;17.004;2022-12-20T13:11:32;22.20;59.70
39751;DHT22;37579;51.074;17.004;2022-12-20T13:16:37;22.10;59.80
39751;DHT22;37579;51.074;17.004;2022-12-20T13:19:17;22.10;59.50
39751;DHT22;37579;51.074;17.004;2022-12-20T13:21:45;22.10;59.40
39751;DHT22;37579;51.074;17.004;2022-12-20T13:27:01;22.10;58.90
39751;DHT22;37579;51.074;17.004;2022-12-20T13:38:20;22.10;58.40
39751;DHT22;37579;51.074;17.004;2022-12-20T13:40:59;22.20;58.40
39751;DHT22;37579;51.074;17.004;2022-12-20T13:43:30;22.20;58.20
39751;DHT22;37579;51.074;17.004;2022-12-20T13:51:03;22.20;57.90
39751;DHT22;37579;51.074;17.004;2022-12-20T13:53:30;22.20;57.80
39751;DHT22;37579;51.074;17.004;2022-12-20T13:55:56;22.20;57.70
39751;DHT22;37579;51.074;17.004;2022-12-20T13:58:32;22.20;57.80
39751;DHT22;37579;51.074;17.004;2022-12-20T14:01:14;22.20;57.70
39751;DHT22;37579;51.074;17.004;2022-12-20T14:03:44;22.20;57.80
39751;DHT22;37579;51.074;17.004;2022-12-20T14:06:13;22.20;57.70
39751;DHT22;37579;51.074;17.004;2022-12-20T14:08:46;22.20;57.70
39751;DHT22;37579;51.074;17.004;2022-12-20T14:13:41;22.20;57.50
39751;DHT22;37579;51.074;17.004;2022-12-20T14:16:11;22.20;57.40
39751;DHT22;37579;51.074;17.004;2022-12-20T14:18:39;22.30;57.30
39751;DHT22;37579;51.074;17.004;2022-12-20T14:21:05;22.30;57.30
39751;DHT22;37579;51.074;17.004;2022-12-20T14:23:44;22.30;57.20
39751;DHT22;37579;51.074;17.004;2022-12-20T14:26:40;22.30;57.10
39751;DHT22;37579;51.074;17.004;2022-12-20T14:29:15;22.30;57.10
39751;DHT22;37579;51.074;17.004;2022-12-20T14:31:43;22.30;56.90
39751;DHT22;37579;51.074;17.004;2022-12-20T14:36:40;22.30;56.80
39751;DHT22;37579;51.074;17.004;2022-12-20T14:39:28;22.30;56.90
39751;DHT22;37579;51.074;17.004;2022-12-20T14:42:17;22.30;56.70
39751;DHT22;37579;51.074;17.004;2022-12-20T14:44:43;22.30;56.70
39751;DHT22;37579;51.074;17.004;2022-12-20T14:47:24;22.40;56.70
39751;DHT22;37579;51.074;17.004;2022-12-20T14:49:57;22.40;56.70
39751;DHT22;37579;51.074;17.004;2022-12-20T14:52:35;22.30;56.70
39751;DHT22;37579;51.074;17.004;2022-12-20T14:55:21;22.30;56.80
39751;DHT22;37579;51.074;17.004;2022-12-20T14:57:51;22.30;56.90
39751;DHT22;37579;51.074;17.004;2022-12-20T15:08:21;22.30;57.10
39751;DHT22;37579;51.074;17.004;2022-12-20T15:13:24;22.30;57.10
39751;DHT22;37579;51.074;17.004;2022-12-20T15:15:51;22.30;57.40
39751;DHT22;37579;51.074;17.004;2022-12-20T15:18:19;22.30;58.10
39751;DHT22;37579;51.074;17.004;2022-12-20T15:20:48;22.30;58.40
39751;DHT22;37579;51.074;17.004;2022-12-20T15:23:21;22.20;58.50
39751;DHT22;37579;51.074;17.004;2022-12-20T15:25:47;22.20;58.60
39751;DHT22;37579;51.074;17.004;2022-12-20T15:28:16;22.20;58.60
39751;DHT22;37579;51.074;17.004;2022-12-20T15:30:42;22.20;58.50
39751;DHT22;37579;51.074;17.004;2022-12-20T15:33:19;22.20;58.50
39751;DHT22;37579;51.074;17.004;2022-12-20T15:35:46;22.20;58.50
39751;DHT22;37579;51.074;17.004;2022-12-20T15:38:19;22.20;58.60
39751;DHT22;37579;51.074;17.004;2022-12-20T15:40:46;22.20;58.50
39751;DHT22;37579;51.074;17.004;2022-12-20T15:43:17;22.20;58.50
39751;DHT22;37579;51.074;17.004;2022-12-20T15:45:45;22.20;58.40
39751;DHT22;37579;51.074;17.004;2022-12-20T15:48:18;22.20;58.40
39751;DHT22;37579;51.074;17.004;2022-12-20T15:50:49;22.20;58.30
39751;DHT22;37579;51.074;17.004;2022-12-20T15:53:20;22.20;58.20
39751;DHT22;37579;51.074;17.004;2022-12-20T15:55:52;22.20;58.20
39751;DHT22;37579;51.074;17.004;2022-12-20T15:58:18;22.20;58.10
39751;DHT22;37579;51.074;17.004;2022-12-20T16:00:44;22.20;58.00
39751;DHT22;37579;51.074;17.004;2022-12-20T16:03:13;22.20;58.10
39751;DHT22;37579;51.074;17.004;2022-12-20T16:05:40;22.20;58.30
39751;DHT22;37579;51.074;17.004;2022-12-20T16:08:06;22.20;58.20
39751;DHT22;37579;51.074;17.004;2022-12-20T16:10:32;22.20;58.20
39751;DHT22;37579;51.074;17.004;2022-12-20T16:12:57;22.30;58.30
39751;DHT22;37579;51.074;17.004;2022-12-20T16:15:23;22.20;58.20
39751;DHT22;37579;51.074;17.004;2022-12-20T16:17:50;22.20;58.20
39751;DHT22;37579;51.074;17.004;2022-12-20T16:20:17;22.20;58.20
39751;DHT22;37579;51.074;17.004;2022-12-20T16:22:44;22.20;58.20
39751;DHT22;37579;51.074;17.004;2022-12-20T16:25:29;22.20;58.10
39751;DHT22;37579;51.074;17.004;2022-12-20T16:27:56;22.20;58.10
39751;DHT22;37579;51.074;17.004;2022-12-20T16:30:22;22.20;58.10
39751;DHT22;37579;51.074;17.004;2022-12-20T16:32:48;22.20;58.00
39751;DHT22;37579;51.074;17.004;2022-12-20T16:35:34;22.30;58.00
39751;DHT22;37579;51.074;17.004;2022-12-20T16:38:02;22.30;57.90
39751;DHT22;37579;51.074;17.004;2022-12-20T16:40:30;22.30;57.80
39751;DHT22;37579;51.074;17.004;2022-12-20T16:42:58;22.30;57.70
39751;DHT22;37579;51.074;17.004;2022-12-20T16:45:29;22.40;57.60
39751;DHT22;37579;51.074;17.004;2022-12-20T16:47:55;22.50;57.50
39751;DHT22;37579;51.074;17.004;2022-12-20T16:50:23;22.50;57.40
39751;DHT22;37579;51.074;17.004;2022-12-20T16:52:49;22.60;57.30
39751;DHT22;37579;51.074;17.004;2022-12-20T16:55:26;22.70;57.20
39751;DHT22;37579;51.074;17.004;2022-12-20T16:57:52;22.70;56.90
39751;DHT22;37579;51.074;17.004;2022-12-20T17:00:25;22.70;56.90
39751;DHT22;37579;51.074;17.004;2022-12-20T17:02:54;22.70;56.70
39751;DHT22;37579;51.074;17.004;2022-12-20T17:05:30;22.70;56.60
39751;DHT22;37579;51.074;17.004;2022-12-20T17:07:56;22.70;56.50
39751;DHT22;37579;51.074;17.004;2022-12-20T17:10:24;22.80;56.30
39751;DHT22;37579;51.074;17.004;2022-12-20T17:12:50;22.80;56.30
39751;DHT22;37579;51.074;17.004;2022-12-20T17:15:26;22.70;56.20
39751;DHT22;37579;51.074;17.004;2022-12-20T17:17:53;22.70;56.20
39751;DHT22;37579;51.074;17.004;2022-12-20T17:20:20;22.80;56.20
39751;DHT22;37579;51.074;17.004;2022-12-20T17:22:52;22.80;56.30
39751;DHT22;37579;51.074;17.004;2022-12-20T17:25:30;22.80;56.10
39751;DHT22;37579;51.074;17.004;2022-12-20T17:27:57;22.70;56.00
39751;DHT22;37579;51.074;17.004;2022-12-20T17:30:24;22.80;56.00
39751;DHT22;37579;51.074;17.004;2022-12-20T17:32:51;22.80;56.10
39751;DHT22;37579;51.074;17.004;2022-12-20T17:35:29;22.70;56.10
39751;DHT22;37579;51.074;17.004;2022-12-20T17:37:55;22.80;56.30
39751;DHT22;37579;51.074;17.004;2022-12-20T17:40:26;22.80;56.40
39751;DHT22;37579;51.074;17.004;2022-12-20T17:42:53;22.70;56.40
39751;DHT22;37579;51.074;17.004;2022-12-20T17:45:30;22.80;56.50